Time;durP1;ratioP1;P1;durP2;ratioP2;P2;SDS_P1;SDS_P2;PMS_P1;PMS_P2;Temp;Humidity;BMP_temperature;BMP_pressure;BME280_temperature;BME280_humidity;BME280_pressure;Samples;Min_cycle;Max_cycle;Signal;HPM_P1;HPM_P2
2021/01/14 00:02:22;;;;;;;1.60;0.80;;;5.60;92.20;;;;;;5033918;28;20390;-79
2021/01/14 00:04:48;;;;;;;0.88;0.73;;;5.60;92.20;;;;;;5015578;28;20017;-79
2021/01/14 00:07:14;;;;;;;2.60;0.80;;;5.60;92.20;;;;;;5015142;28;20094;-79
2021/01/14 00:09:39;;;;;;;3.58;0.75;;;5.60;92.20;;;;;;5015587;28;20053;-80
2021/01/14 00:12:05;;;;;;;1.85;0.75;;;5.60;92.10;;;;;;5015401;28;20025;-79
2021/01/14 00:14:31;;;;;;;3.13;0.75;;;5.60;92.10;;;;;;5033057;28;20024;-79
2021/01/14 00:16:57;;;;;;;0.70;0.70;;;5.60;92.10;;;;;;5033298;28;20025;-79
2021/01/14 00:19:23;;;;;;;1.20;0.70;;;5.50;92.10;;;;;;5015206;28;20029;-79
2021/01/14 00:21:48;;;;;;;2.38;0.68;;;5.50;92.10;;;;;;5015586;28;20471;-79
2021/01/14 00:24:14;;;;;;;0.70;0.52;;;5.50;92.10;;;;;;5032448;28;20148;-79
2021/01/14 00:26:40;;;;;;;0.55;0.55;;;5.40;92.20;;;;;;5033566;28;20367;-79
2021/01/14 00:29:07;;;;;;;0.75;0.60;;;5.50;92.20;;;;;;5015412;28;20028;-78
2021/01/14 00:31:33;;;;;;;1.13;0.65;;;5.50;92.20;;;;;;5015763;28;20022;-79
2021/01/14 00:34:00;;;;;;;2.42;0.80;;;5.50;92.20;;;;;;5033259;28;20045;-79
2021/01/14 00:39:29;;;;;;;7.90;1.02;;;5.40;92.10;;;;;;5024581;28;20061;-79
2021/01/14 00:41:55;;;;;;;4.57;0.82;;;5.40;92.10;;;;;;5033423;28;20021;-81
2021/01/14 00:44:21;;;;;;;1.95;0.70;;;5.40;92.10;;;;;;5033402;28;20045;-79
2021/01/14 00:46:47;;;;;;;0.52;0.52;;;5.40;92.10;;;;;;5033359;28;20068;-79
2021/01/14 00:49:12;;;;;;;1.38;0.75;;;5.40;92.10;;;;;;5032980;28;20394;-79
2021/01/14 00:51:39;;;;;;;0.75;0.70;;;5.40;92.10;;;;;;5015941;28;20013;-78
2021/01/14 00:54:06;;;;;;;2.78;1.05;;;5.40;92.10;;;;;;5032485;28;20091;-79
2021/01/14 00:56:36;;;;;;;0.98;0.70;;;5.40;92.10;;;;;;5015514;28;20018;-78
2021/01/14 00:59:03;;;;;;;1.98;0.80;;;5.40;92.10;;;;;;5014570;28;20060;-80
2021/01/14 01:01:29;;;;;;;0.65;0.52;;;5.30;92.10;;;;;;5033138;28;20021;-78
2021/01/14 01:03:56;;;;;;;1.10;0.70;;;5.30;92.10;;;;;;5032823;28;20029;-89
2021/01/14 01:06:22;;;;;;;0.88;0.73;;;5.30;92.10;;;;;;5015186;28;20108;-79
2021/01/14 01:08:49;;;;;;;2.40;0.85;;;5.30;92.10;;;;;;5032890;28;20036;-79
2021/01/14 01:11:22;;;;;;;1.33;0.57;;;5.30;92.10;;;;;;5014773;28;20487;-78
2021/01/14 01:13:48;;;;;;;2.88;0.70;;;5.30;92.10;;;;;;5032978;28;20021;-78
2021/01/14 01:16:17;;;;;;;0.88;0.70;;;5.20;92.10;;;;;;5014836;28;20051;-79
2021/01/14 01:18:43;;;;;;;1.10;0.70;;;5.20;92.20;;;;;;5032705;28;20037;-79
2021/01/14 01:21:09;;;;;;;1.75;0.95;;;5.20;92.20;;;;;;5030079;28;20024;-79
2021/01/14 01:23:35;;;;;;;1.73;0.70;;;5.20;92.20;;;;;;5013041;28;20018;-79
2021/01/14 01:26:01;;;;;;;2.75;0.68;;;5.10;92.20;;;;;;4994993;28;20033;-79
2021/01/14 01:28:26;;;;;;;1.73;0.85;;;5.10;92.20;;;;;;4995743;28;20028;-79
2021/01/14 01:30:52;;;;;;;1.20;0.70;;;5.10;92.20;;;;;;5013048;28;20097;-78
2021/01/14 01:33:18;;;;;;;0.60;0.60;;;5.10;92.30;;;;;;4994929;28;20404;-79
2021/01/14 01:35:49;;;;;;;1.85;0.77;;;5.00;92.30;;;;;;4994489;28;20022;-78
2021/01/14 01:38:15;;;;;;;;;;;5.00;92.30;;;;;;5012760;28;20087;-79
2021/01/14 01:40:40;;;;;;;0.60;0.60;;;5.00;92.20;;;;;;5013001;28;19909;-79
2021/01/14 01:43:06;;;;;;;1.35;0.70;;;5.00;92.20;;;;;;5013581;28;20395;-79
2021/01/14 01:45:32;;;;;;;2.38;0.88;;;5.00;92.20;;;;;;4995288;28;20024;-79
2021/01/14 01:47:58;;;;;;;3.58;0.77;;;5.00;92.20;;;;;;4995120;28;20028;-79
2021/01/14 01:50:24;;;;;;;1.15;0.73;;;5.00;92.20;;;;;;5012696;28;20088;-79
2021/01/14 01:52:49;;;;;;;2.88;0.73;;;5.00;92.20;;;;;;4995188;28;20053;-79
2021/01/14 01:55:17;;;;;;;4.95;1.00;;;5.00;92.20;;;;;;4994584;28;20014;-79
2021/01/14 01:57:43;;;;;;;1.40;0.70;;;5.10;92.10;;;;;;5012392;28;20132;-79
2021/01/14 02:00:09;;;;;;;1.52;0.80;;;5.10;92.00;;;;;;5012286;28;20100;-79
2021/01/14 02:02:35;;;;;;;1.95;0.63;;;5.00;92.00;;;;;;5012713;28;20022;-79
2021/01/14 02:05:01;;;;;;;1.35;0.73;;;5.00;92.00;;;;;;5012358;28;20061;-80
2021/01/14 02:07:38;;;;;;;3.42;0.68;;;5.00;92.00;;;;;;5012723;28;20029;-78
2021/01/14 02:10:24;;;;;;;1.65;0.75;;;5.10;92.00;;;;;;4994453;28;20030;-79
2021/01/14 02:13:21;;;;;;;1.13;0.77;;;5.10;92.00;;;;;;4995168;28;20021;-78
2021/01/14 02:15:48;;;;;;;0.70;0.70;;;5.00;92.00;;;;;;4994854;28;20466;-80
2021/01/14 02:18:19;;;;;;;2.28;0.95;;;5.00;92.00;;;;;;5011999;28;20053;-79
2021/01/14 02:20:49;;;;;;;0.77;0.77;;;5.00;92.00;;;;;;5012610;28;20037;-79
2021/01/14 02:23:55;;;;;;;1.75;0.63;;;5.00;92.00;;;;;;5012107;28;20025;-79
2021/01/14 02:26:21;;;;;;;0.52;0.52;;;5.00;92.00;;;;;;4989454;28;20197;-78
2021/01/14 02:28:48;;;;;;;1.02;0.77;;;4.90;92.00;;;;;;5012393;28;20056;-79
2021/01/14 02:31:15;;;;;;;2.08;0.93;;;4.90;91.90;;;;;;5012202;28;20026;-79
2021/01/14 02:33:41;;;;;;;1.10;0.80;;;4.90;92.00;;;;;;5012345;28;20022;-79
2021/01/14 02:36:08;;;;;;;0.82;0.80;;;4.90;92.00;;;;;;5011829;28;20022;-79
2021/01/14 02:38:34;;;;;;;1.30;0.80;;;4.90;92.00;;;;;;5012289;28;20149;-78
2021/01/14 02:41:00;;;;;;;1.27;0.80;;;4.90;92.00;;;;;;5011875;28;20372;-79
2021/01/14 02:43:26;;;;;;;0.57;0.57;;;4.90;91.90;;;;;;5011599;28;20018;-79
2021/01/14 02:45:52;;;;;;;1.02;0.85;;;4.90;91.90;;;;;;5012376;28;20022;-79
2021/01/14 02:48:22;;;;;;;0.95;0.77;;;4.90;91.80;;;;;;5014572;28;20046;-78
2021/01/14 02:50:53;;;;;;;2.03;0.80;;;4.90;91.80;;;;;;4997745;28;20534;-77
2021/01/14 02:53:21;;;;;;;1.13;0.93;;;5.00;91.80;;;;;;5015570;28;20026;-77
2021/01/14 02:55:48;;;;;;;0.65;0.65;;;5.00;91.80;;;;;;5015572;28;20479;-78
2021/01/14 02:58:14;;;;;;;0.98;0.70;;;5.00;91.80;;;;;;5014772;28;20073;-78
2021/01/14 03:00:40;;;;;;;1.45;0.90;;;5.00;91.80;;;;;;5015762;28;20065;-78
2021/01/14 03:03:05;;;;;;;1.02;0.60;;;4.90;91.80;;;;;;5015579;28;20122;-79
2021/01/14 03:05:31;;;;;;;0.88;0.82;;;4.90;91.80;;;;;;5015653;28;20018;-77
2021/01/14 03:07:57;;;;;;;1.48;0.85;;;4.90;91.80;;;;;;4997965;28;20025;-78
2021/01/14 03:10:22;;;;;;;0.85;0.60;;;4.90;91.80;;;;;;5015144;28;20034;-77
2021/01/14 03:12:48;;;;;;;1.95;0.70;;;4.90;91.80;;;;;;5016760;28;20022;-78
2021/01/14 03:15:14;;;;;;;4.45;0.68;;;4.90;91.80;;;;;;5016167;28;20137;-79
2021/01/14 03:17:39;;;;;;;2.08;0.98;;;4.90;91.80;;;;;;4997687;28;20024;-78
2021/01/14 03:20:06;;;;;;;1.02;0.93;;;4.90;91.80;;;;;;5014911;28;20022;-89
2021/01/14 03:22:37;;;;;;;1.23;1.02;;;4.90;91.90;;;;;;5004967;28;20014;-78
2021/01/14 03:25:09;;;;;;;0.80;0.65;;;4.90;91.90;;;;;;5015262;28;20025;-79
2021/01/14 03:27:40;;;;;;;1.17;0.90;;;4.80;91.80;;;;;;5015571;28;20097;-78
2021/01/14 03:30:07;;;;;;;1.02;0.70;;;4.80;91.90;;;;;;4997733;28;20116;-78
2021/01/14 03:32:33;;;;;;;0.60;0.60;;;4.80;91.90;;;;;;5015615;28;20014;-79
2021/01/14 03:34:58;;;;;;;2.65;1.00;;;4.70;91.90;;;;;;4998098;28;20109;-78
2021/01/14 03:37:24;;;;;;;1.23;0.60;;;4.70;92.00;;;;;;4998231;28;20478;-79
2021/01/14 03:39:50;;;;;;;2.03;0.93;;;4.70;92.10;;;;;;5015759;28;20030;-79
2021/01/14 03:42:20;;;;;;;0.65;0.65;;;4.60;92.10;;;;;;4997844;28;20025;-79
2021/01/14 03:44:47;;;;;;;0.75;0.60;;;4.60;92.10;;;;;;5015708;28;20523;-79
2021/01/14 03:47:13;;;;;;;4.28;0.82;;;4.50;92.00;;;;;;5015211;28;20018;-80
2021/01/14 03:49:39;;;;;;;1.15;0.90;;;4.60;92.10;;;;;;4998017;28;20028;-78
2021/01/14 03:52:08;;;;;;;1.15;0.70;;;4.50;92.00;;;;;;5015593;28;20072;-78
2021/01/14 03:54:33;;;;;;;0.70;0.60;;;4.50;92.00;;;;;;5015769;28;20036;-78
2021/01/14 03:56:59;;;;;;;0.82;0.77;;;4.60;92.00;;;;;;4997222;28;20018;-78
2021/01/14 03:59:25;;;;;;;2.50;0.90;;;4.60;92.00;;;;;;5014036;28;20038;-79
2021/01/14 04:01:50;;;;;;;0.80;0.80;;;4.60;91.90;;;;;;5015403;28;20080;-79
2021/01/14 04:04:16;;;;;;;0.55;0.55;;;4.60;91.90;;;;;;5013925;28;20053;-78
2021/01/14 04:06:41;;;;;;;0.85;0.85;;;4.60;91.90;;;;;;5014617;28;20018;-78
2021/01/14 04:09:07;;;;;;;1.27;0.82;;;4.60;91.90;;;;;;5014234;28;20418;-78
2021/01/14 04:11:33;;;;;;;0.85;0.68;;;4.60;92.10;;;;;;4996266;28;20029;-79
2021/01/14 04:14:00;;;;;;;2.22;0.90;;;4.60;91.90;;;;;;5014054;28;20096;-78
2021/01/14 04:16:26;;;;;;;0.65;0.65;;;4.60;91.90;;;;;;5013794;28;20037;-78
2021/01/14 04:18:52;;;;;;;2.17;0.73;;;4.70;91.90;;;;;;5015330;28;20033;-78
2021/01/14 04:21:17;;;;;;;4.75;1.05;;;4.70;91.90;;;;;;5016875;28;20026;-80
2021/01/14 04:23:44;;;;;;;2.80;0.60;;;4.70;91.90;;;;;;5022550;28;20025;-81
2021/01/14 04:26:10;;;;;;;1.42;0.70;;;4.70;91.90;;;;;;5029662;28;20029;-89
2021/01/14 04:28:39;;;;;;;2.40;0.82;;;4.70;91.80;;;;;;5029101;28;20061;-79
2021/01/14 04:31:05;;;;;;;3.63;0.90;;;4.70;91.80;;;;;;5015303;28;20105;-79
2021/01/14 04:33:31;;;;;;;3.05;1.52;;;4.70;91.80;;;;;;5015184;28;20026;-80
2021/01/14 04:36:00;;;;;;;0.73;0.60;;;4.60;91.80;;;;;;5014882;28;20359;-78
2021/01/14 04:38:27;;;;;;;1.58;0.77;;;4.60;91.80;;;;;;5013624;28;20056;-78
2021/01/14 04:40:58;;;;;;;1.88;0.70;;;4.60;91.80;;;;;;5014564;28;20174;-78
2021/01/14 04:43:25;;;;;;;2.60;0.70;;;4.60;91.80;;;;;;5014003;28;20018;-78
2021/01/14 04:46:04;;;;;;;0.50;0.50;;;4.60;91.80;;;;;;5014406;28;20506;-78
2021/01/14 04:48:31;;;;;;;1.30;0.70;;;4.60;91.90;;;;;;5013989;28;20029;-78
2021/01/14 04:51:07;;;;;;;1.10;0.90;;;4.50;91.90;;;;;;5014302;28;20393;-78
2021/01/14 04:53:35;;;;;;;0.68;0.68;;;4.50;92.00;;;;;;4995614;28;20050;-78
2021/01/14 04:56:03;;;;;;;4.47;0.90;;;4.50;92.00;;;;;;4996399;28;20080;-79
2021/01/14 04:58:29;;;;;;;4.88;0.90;;;4.50;92.00;;;;;;5013554;28;20476;-79
2021/01/14 05:00:57;;;;;;;3.25;1.33;;;4.40;92.00;;;;;;4996183;28;20087;-79
2021/01/14 05:03:27;;;;;;;2.65;0.90;;;4.50;92.00;;;;;;5013846;28;20197;-79
2021/01/14 05:05:55;;;;;;;2.40;0.90;;;4.50;91.90;;;;;;4996392;28;20014;-79
2021/01/14 05:08:31;;;;;;;0.88;0.82;;;4.50;91.90;;;;;;5013314;28;20025;-79
2021/01/14 05:10:57;;;;;;;0.60;0.57;;;4.50;91.90;;;;;;5013966;28;20013;-79
2021/01/14 05:13:24;;;;;;;1.27;0.70;;;4.50;91.90;;;;;;5013304;28;20257;-79
2021/01/14 05:15:50;;;;;;;1.02;0.70;;;4.50;91.90;;;;;;4996024;28;20020;-79
2021/01/14 05:18:16;;;;;;;1.15;0.63;;;4.50;91.80;;;;;;5012791;28;20030;-80
2021/01/14 05:20:42;;;;;;;0.60;0.60;;;4.60;91.80;;;;;;5013492;28;20028;-77
2021/01/14 05:23:08;;;;;;;0.70;0.57;;;4.60;91.80;;;;;;5028569;28;20032;-79
2021/01/14 05:25:35;;;;;;;1.48;0.65;;;4.60;91.80;;;;;;5013740;28;20445;-80
2021/01/14 05:28:14;;;;;;;0.70;0.70;;;4.60;91.80;;;;;;5032484;28;20021;-80
2021/01/14 05:30:41;;;;;;;2.72;0.93;;;4.60;91.80;;;;;;5031938;28;20083;-79
2021/01/14 05:33:18;;;;;;;1.15;0.63;;;4.60;91.80;;;;;;5032707;28;20017;-79
2021/01/14 05:35:54;;;;;;;0.65;0.65;;;4.60;91.70;;;;;;5012315;28;20072;-80
2021/01/14 05:38:20;;;;;;;1.73;1.00;;;4.60;91.70;;;;;;5014300;28;20096;-80
2021/01/14 05:41:10;;;;;;;0.88;0.68;;;4.60;91.80;;;;;;5032537;28;20096;-79
2021/01/14 05:43:31;;;;;;;2.05;0.60;;;4.60;91.80;;;;;;5031695;28;20072;-80
2021/01/14 05:46:20;;;;;;;3.42;0.73;;;4.60;91.80;;;;;;5015702;28;20017;-80
2021/01/14 05:48:47;;;;;;;0.50;0.50;;;4.60;91.70;;;;;;5033219;28;20509;-80
2021/01/14 05:51:21;;;;;;;0.43;0.43;;;4.60;91.70;;;;;;5033490;28;20455;-79
2021/01/14 05:53:53;;;;;;;2.67;0.70;;;4.70;91.70;;;;;;5032857;28;20016;-80
2021/01/14 05:56:26;;;;;;;0.95;0.80;;;4.70;91.70;;;;;;5014195;28;20024;-80
2021/01/14 05:58:54;;;;;;;0.75;0.75;;;4.60;91.70;;;;;;5032224;28;20065;-80
2021/01/14 06:01:23;;;;;;;1.50;1.35;;;4.60;91.70;;;;;;5029813;28;20024;-80
2021/01/14 06:03:49;;;;;;;2.90;0.82;;;4.60;91.70;;;;;;5030547;28;20026;-79
2021/01/14 06:06:16;;;;;;;2.30;0.82;;;4.60;91.70;;;;;;5030770;28;20534;-83
2021/01/14 06:08:42;;;;;;;0.73;0.60;;;4.60;91.70;;;;;;5030817;28;20022;-80
2021/01/14 06:11:22;;;;;;;0.88;0.60;;;4.60;91.70;;;;;;5030601;28;20017;-82
2021/01/14 06:13:49;;;;;;;2.38;0.80;;;4.60;91.70;;;;;;5030460;28;20058;-82
2021/01/14 06:16:14;;;;;;;0.73;0.70;;;4.60;91.70;;;;;;5030945;28;20097;-79
2021/01/14 06:18:40;;;;;;;4.38;0.80;;;4.60;91.70;;;;;;5013929;28;20121;-79
2021/01/14 06:21:06;;;;;;;4.80;0.80;;;4.60;91.70;;;;;;5031121;28;20009;-79
2021/01/14 06:23:46;;;;;;;1.30;0.80;;;4.60;91.70;;;;;;5032166;28;20021;-79
2021/01/14 06:26:24;;;;;;;5.18;1.10;;;4.60;91.70;;;;;;5033630;28;20017;-81
2021/01/14 06:28:50;;;;;;;1.90;0.80;;;4.60;91.70;;;;;;5015479;28;20017;-81
2021/01/14 06:31:16;;;;;;;1.35;0.70;;;4.60;91.70;;;;;;5015814;28;20339;-80
2021/01/14 06:33:44;;;;;;;1.17;0.85;;;4.60;91.70;;;;;;5033304;28;20094;-81
2021/01/14 06:36:12;;;;;;;1.80;0.80;;;4.60;91.70;;;;;;5033428;28;20029;-77
2021/01/14 06:38:46;;;;;;;1.20;0.88;;;4.60;91.70;;;;;;5034953;28;20036;-79
2021/01/14 06:41:20;;;;;;;1.08;0.80;;;4.60;91.70;;;;;;5035360;28;20017;-80
2021/01/14 06:43:50;;;;;;;2.58;0.98;;;4.60;91.70;;;;;;5035406;28;20455;-80
2021/01/14 06:46:21;;;;;;;1.23;0.87;;;4.60;91.70;;;;;;5017899;28;20020;-80
2021/01/14 06:49:04;;;;;;;1.58;0.90;;;4.60;91.70;;;;;;5017798;28;20275;-78
2021/01/14 06:51:52;;;;;;;3.13;0.82;;;4.60;91.70;;;;;;5034803;28;20033;-79
2021/01/14 06:54:19;;;;;;;0.65;0.65;;;4.60;91.70;;;;;;5034430;28;20063;-80
2021/01/14 06:56:58;;;;;;;1.45;0.60;;;4.50;91.70;;;;;;5034670;28;20037;-80
2021/01/14 06:59:25;;;;;;;0.80;0.68;;;4.60;91.70;;;;;;5036118;28;20041;-80
2021/01/14 07:02:04;;;;;;;1.45;0.85;;;4.50;91.70;;;;;;5037202;28;20052;-80
2021/01/14 07:04:45;;;;;;;2.88;1.10;;;4.60;91.70;;;;;;5036863;28;20018;-80
2021/01/14 07:07:26;;;;;;;1.83;0.90;;;4.60;91.70;;;;;;5035274;28;20024;-79
2021/01/14 07:10:09;;;;;;;1.48;0.80;;;4.60;91.70;;;;;;5022953;28;20030;-79
2021/01/14 07:12:37;;;;;;;2.53;1.17;;;4.60;91.70;;;;;;5023714;28;20010;-80
2021/01/14 07:15:10;;;;;;;3.13;1.13;;;4.50;91.70;;;;;;5034927;28;20072;-79
2021/01/14 07:17:39;;;;;;;2.63;0.88;;;4.60;91.70;;;;;;5034666;28;20092;-80
2021/01/14 07:20:23;;;;;;;4.15;0.70;;;4.50;91.70;;;;;;5033682;28;20052;-80
2021/01/14 07:23:01;;;;;;;2.15;0.75;;;4.60;91.70;;;;;;5034747;28;20009;-80
2021/01/14 07:25:27;;;;;;;1.20;0.95;;;4.60;91.70;;;;;;5034341;28;20109;-80
2021/01/14 07:27:53;;;;;;;0.98;0.70;;;4.50;91.70;;;;;;5034608;28;20036;-80
2021/01/14 07:30:20;;;;;;;2.70;1.73;;;4.50;91.70;;;;;;5034803;28;20044;-80
2021/01/14 07:32:55;;;;;;;3.28;0.88;;;4.50;91.70;;;;;;5033451;28;20344;-80
2021/01/14 07:35:44;;;;;;;3.45;1.08;;;4.60;91.70;;;;;;5034327;28;20024;-80
2021/01/14 07:38:17;;;;;;;1.85;1.05;;;4.50;91.70;;;;;;5016876;28;20079;-80
2021/01/14 07:40:45;;;;;;;0.82;0.82;;;4.50;91.70;;;;;;5034110;28;20787;-80
2021/01/14 07:43:14;;;;;;;2.47;0.93;;;4.50;91.70;;;;;;5034768;28;20021;-79
2021/01/14 07:45:41;;;;;;;1.23;1.00;;;4.50;91.70;;;;;;5033868;28;20025;-79
2021/01/14 07:48:19;;;;;;;1.38;1.05;;;4.50;91.70;;;;;;5034380;28;20021;-79
2021/01/14 07:50:56;;;;;;;2.15;1.20;;;4.50;91.70;;;;;;5016015;28;20370;-79
2021/01/14 07:53:22;;;;;;;0.93;0.63;;;4.50;91.70;;;;;;5034229;28;20049;-79
2021/01/14 07:55:48;;;;;;;0.95;0.80;;;4.40;91.60;;;;;;5016453;28;20022;-79
2021/01/14 07:58:23;;;;;;;1.30;1.00;;;4.40;91.60;;;;;;5034143;28;20576;-79
2021/01/14 08:00:59;;;;;;;2.28;0.88;;;4.40;91.90;;;;;;5033852;28;20467;-79
2021/01/14 08:03:38;;;;;;;1.08;0.93;;;4.40;91.60;;;;;;5016440;28;20013;-79
2021/01/14 08:06:29;;;;;;;1.95;1.63;;;4.50;91.70;;;;;;5033064;28;20029;-80
2021/01/14 08:09:06;;;;;;;3.97;1.10;;;4.50;91.60;;;;;;5016291;28;20028;-81
2021/01/14 08:11:35;;;;;;;1.52;1.00;;;4.40;91.60;;;;;;5033685;28;20025;-79
2021/01/14 08:14:11;;;;;;;3.60;1.00;;;4.40;91.70;;;;;;5033730;28;20468;-79
2021/01/14 08:16:42;;;;;;;1.15;0.70;;;4.50;91.70;;;;;;5033147;28;20454;-79
2021/01/14 08:19:11;;;;;;;1.48;1.10;;;4.50;91.70;;;;;;5015853;28;20048;-79
2021/01/14 08:21:37;;;;;;;1.23;1.13;;;4.50;91.70;;;;;;5015419;28;20366;-79
2021/01/14 08:24:03;;;;;;;2.47;0.95;;;4.50;91.70;;;;;;5015797;28;20017;-78
2021/01/14 08:26:29;;;;;;;1.33;0.82;;;4.50;91.70;;;;;;5032913;28;20021;-80
2021/01/14 08:29:01;;;;;;;3.13;1.02;;;4.40;91.60;;;;;;5033665;28;20025;-79
2021/01/14 08:31:37;;;;;;;2.50;0.90;;;4.50;91.60;;;;;;5016031;28;20105;-79
2021/01/14 08:34:05;;;;;;;3.47;1.40;;;4.50;91.60;;;;;;5033604;28;20383;-78
2021/01/14 08:36:41;;;;;;;1.83;0.82;;;4.50;91.60;;;;;;5033751;28;20033;-79
2021/01/14 08:39:08;;;;;;;2.30;0.88;;;4.50;91.60;;;;;;5016851;28;20117;-79
2021/01/14 08:41:36;;;;;;;2.40;0.98;;;4.50;91.60;;;;;;5032822;28;20021;-80
2021/01/14 08:44:03;;;;;;;1.45;0.82;;;4.50;91.60;;;;;;5015459;28;20049;-79
2021/01/14 08:46:41;;;;;;;3.45;1.10;;;4.50;91.50;;;;;;5015233;28;20021;-83
2021/01/14 08:49:11;;;;;;;2.33;1.10;;;4.50;91.50;;;;;;5015329;28;20025;-79
2021/01/14 08:51:41;;;;;;;0.75;0.75;;;4.50;91.50;;;;;;5032569;28;20100;-80
2021/01/14 08:54:08;;;;;;;1.33;1.10;;;4.60;91.50;;;;;;5033067;28;20017;-79
2021/01/14 08:56:33;;;;;;;5.22;1.10;;;4.50;91.50;;;;;;5032518;28;20064;-80
2021/01/14 08:59:14;;;;;;;2.50;1.20;;;4.60;91.50;;;;;;5031686;28;20479;-79
2021/01/14 09:01:40;;;;;;;2.50;1.58;;;4.60;91.50;;;;;;5032566;28;20013;-79
2021/01/14 09:04:07;;;;;;;1.85;1.05;;;4.60;91.50;;;;;;5032630;28;20018;-79
2021/01/14 09:06:42;;;;;;;6.25;1.85;;;4.60;91.40;;;;;;5030980;28;20462;-81
2021/01/14 09:09:15;;;;;;;2.97;1.42;;;4.60;91.40;;;;;;5015206;28;20087;-80
2021/01/14 09:11:41;;;;;;;1.77;1.30;;;4.60;91.40;;;;;;5032010;28;20021;-80
2021/01/14 09:14:09;;;;;;;0.85;0.80;;;4.60;91.40;;;;;;5032935;28;20455;-81
2021/01/14 09:16:37;;;;;;;1.90;1.30;;;4.60;91.40;;;;;;5033869;28;20167;-81
2021/01/14 09:19:23;;;;;;;2.08;1.20;;;4.60;91.40;;;;;;5019028;28;20030;-80
2021/01/14 09:21:49;;;;;;;3.38;1.48;;;4.60;91.40;;;;;;5051327;28;20021;-81
2021/01/14 09:24:16;;;;;;;5.90;1.58;;;4.60;91.40;;;;;;5052800;28;20029;-80
2021/01/14 09:26:43;;;;;;;2.70;1.30;;;4.70;91.40;;;;;;5021941;28;20021;-80
2021/01/14 09:29:13;;;;;;;5.60;1.30;;;4.70;91.40;;;;;;5032818;28;20537;-80
2021/01/14 09:31:40;;;;;;;5.15;1.75;;;4.70;91.40;;;;;;5014164;28;20515;-81
2021/01/14 09:34:06;;;;;;;7.22;1.77;;;4.70;91.40;;;;;;5015068;28;20040;-79
2021/01/14 09:36:33;;;;;;;3.63;1.60;;;4.70;91.40;;;;;;5032376;28;20025;-80
2021/01/14 09:39:07;;;;;;;6.85;1.85;;;4.70;91.30;;;;;;5032499;28;20055;-79
2021/01/14 09:41:35;;;;;;;3.33;1.65;;;4.70;91.30;;;;;;5014604;28;20025;-83
2021/01/14 09:44:15;;;;;;;3.30;1.27;;;4.70;91.20;;;;;;5032526;28;20028;-80
2021/01/14 09:46:46;;;;;;;2.22;1.17;;;4.70;91.20;;;;;;5014223;28;20108;-79
2021/01/14 09:49:14;;;;;;;2.67;1.42;;;4.70;91.20;;;;;;5032432;28;20025;-79
2021/01/14 09:51:41;;;;;;;1.65;1.27;;;4.70;91.20;;;;;;5031928;28;20017;-79
2021/01/14 09:54:08;;;;;;;2.15;1.35;;;4.70;91.20;;;;;;5031026;28;20021;-79
2021/01/14 09:56:37;;;;;;;2.75;1.20;;;4.70;91.30;;;;;;5030930;28;20033;-82
2021/01/14 09:59:24;;;;;;;7.15;1.77;;;4.60;91.30;;;;;;5014316;28;20045;-79
2021/01/14 10:02:00;;;;;;;4.03;1.25;;;4.60;91.30;;;;;;5020622;28;20136;-80
2021/01/14 10:04:27;;;;;;;1.90;1.23;;;4.70;91.30;;;;;;5032238;28;20096;-79
2021/01/14 10:07:01;;;;;;;2.97;1.08;;;4.70;91.30;;;;;;5031676;28;20029;-79
2021/01/14 10:09:27;;;;;;;2.42;1.20;;;4.70;91.20;;;;;;5032300;28;20071;-79
2021/01/14 10:11:54;;;;;;;2.10;1.42;;;4.70;91.10;;;;;;5031399;28;20021;-80
2021/01/14 10:14:21;;;;;;;4.88;1.77;;;4.70;91.10;;;;;;5013857;28;20056;-79
2021/01/14 10:16:48;;;;;;;4.50;1.52;;;4.70;91.10;;;;;;5013685;28;20022;-80
2021/01/14 10:19:18;;;;;;;2.42;1.50;;;4.80;91.20;;;;;;5030765;28;20021;-79
2021/01/14 10:21:44;;;;;;;1.10;1.00;;;4.80;91.20;;;;;;5013861;28;20026;-80
2021/01/14 10:24:29;;;;;;;4.88;1.98;;;4.80;91.20;;;;;;5031962;28;20010;-80
2021/01/14 10:27:09;;;;;;;4.38;1.58;;;4.70;91.10;;;;;;5031453;28;20371;-79
2021/01/14 10:29:41;;;;;;;4.63;1.38;;;4.70;91.20;;;;;;5032061;28;20025;-78
2021/01/14 10:32:11;;;;;;;3.38;1.63;;;4.70;91.20;;;;;;5031857;28;20057;-79
2021/01/14 10:34:44;;;;;;;3.60;1.70;;;4.70;91.20;;;;;;5032508;28;20474;-83
2021/01/14 10:37:27;;;;;;;4.00;1.55;;;4.70;91.20;;;;;;5034823;28;20104;-80
2021/01/14 10:39:57;;;;;;;3.67;1.50;;;4.70;91.20;;;;;;5014393;28;20037;-81
2021/01/14 10:42:34;;;;;;;4.05;1.60;;;4.70;91.20;;;;;;5032374;28;20431;-79
2021/01/14 10:45:08;;;;;;;1.90;1.25;;;4.70;91.30;;;;;;5031444;28;20056;-79
2021/01/14 10:47:35;;;;;;;3.30;1.80;;;4.60;91.30;;;;;;5032261;28;20029;-79
2021/01/14 10:50:21;;;;;;;4.28;1.42;;;4.70;91.30;;;;;;5014285;28;20032;-78
2021/01/14 10:52:53;;;;;;;8.50;1.77;;;4.70;91.30;;;;;;5033654;28;20427;-80
2021/01/14 10:55:19;;;;;;;3.20;1.55;;;4.70;91.30;;;;;;5039558;28;20077;-80
2021/01/14 10:57:48;;;;;;;4.65;1.73;;;4.70;91.20;;;;;;5034853;28;20443;-80
2021/01/14 11:00:16;;;;;;;3.10;1.55;;;4.70;91.20;;;;;;5033881;28;20065;-79
2021/01/14 11:02:42;;;;;;;4.30;2.10;;;4.70;91.20;;;;;;5032607;28;20017;-80
2021/01/14 11:05:09;;;;;;;4.70;1.70;;;4.70;91.20;;;;;;5033437;28;20393;-79
2021/01/14 11:07:34;;;;;;;4.22;1.77;;;4.70;91.20;;;;;;5041031;28;20068;-78
2021/01/14 11:10:09;;;;;;;2.97;1.77;;;4.70;91.20;;;;;;5044666;28;20029;-78
2021/01/14 11:12:55;;;;;;;6.72;1.98;;;4.80;91.20;;;;;;5035838;28;20022;-80
2021/01/14 11:15:20;;;;;;;5.47;2.05;;;4.80;91.10;;;;;;5017183;28;20017;-79
2021/01/14 11:17:46;;;;;;;3.97;1.88;;;4.90;91.10;;;;;;5034419;28;20021;-80
2021/01/14 11:20:12;;;;;;;3.88;1.90;;;4.90;91.00;;;;;;5017540;28;20335;-79
2021/01/14 11:22:38;;;;;;;4.70;2.20;;;4.90;91.00;;;;;;5034730;28;20029;-80
2021/01/14 11:25:04;;;;;;;6.78;2.53;;;5.00;91.00;;;;;;5034258;28;20371;-80
2021/01/14 11:27:30;;;;;;;5.10;1.58;;;4.90;91.00;;;;;;5034963;28;20021;-79
2021/01/14 11:29:55;;;;;;;9.05;1.98;;;4.90;91.00;;;;;;5034483;28;20362;-80
2021/01/14 11:32:21;;;;;;;4.00;1.70;;;4.90;91.00;;;;;;5033514;28;20021;-79
2021/01/14 11:34:46;;;;;;;4.10;1.80;;;4.90;91.10;;;;;;5033931;28;20455;-79
2021/01/14 11:37:12;;;;;;;4.32;1.83;;;4.90;91.10;;;;;;5034363;28;20021;-79
2021/01/14 11:39:38;;;;;;;4.15;2.00;;;4.90;91.10;;;;;;5034619;28;20094;-79
2021/01/14 11:42:04;;;;;;;3.33;1.92;;;5.00;91.20;;;;;;5034090;28;20028;-79
2021/01/14 11:44:30;;;;;;;4.78;2.20;;;5.00;91.20;;;;;;5034126;28;20067;-78
2021/01/14 11:46:56;;;;;;;3.50;1.75;;;5.00;91.20;;;;;;5033977;28;20018;-80
2021/01/14 11:49:21;;;;;;;7.30;2.28;;;5.00;91.20;;;;;;5034428;28;20399;-79
2021/01/14 11:51:51;;;;;;;7.13;1.73;;;5.00;91.10;;;;;;5033905;28;20450;-80
2021/01/14 11:54:17;;;;;;;6.85;2.15;;;5.10;91.10;;;;;;5033190;28;20013;-80
2021/01/14 11:56:42;;;;;;;4.88;1.52;;;5.10;91.10;;;;;;5016410;28;20014;-79
2021/01/14 11:59:08;;;;;;;4.45;1.95;;;5.10;91.10;;;;;;5015708;28;20038;-79
2021/01/14 12:01:34;;;;;;;4.55;1.58;;;5.10;91.10;;;;;;5032754;28;20059;-79
2021/01/14 12:03:59;;;;;;;6.65;2.28;;;5.10;91.10;;;;;;5033970;28;20400;-79
2021/01/14 12:06:25;;;;;;;4.18;2.03;;;5.10;91.10;;;;;;5034294;28;20621;-79
2021/01/14 12:08:50;;;;;;;5.72;1.83;;;5.10;91.10;;;;;;5033540;28;20029;-79
2021/01/14 12:11:19;;;;;;;6.75;2.20;;;5.20;91.20;;;;;;5033887;28;20413;-79
2021/01/14 12:13:45;;;;;;;4.57;1.70;;;5.20;91.10;;;;;;5032024;28;20071;-80
2021/01/14 12:16:11;;;;;;;3.97;1.95;;;5.10;91.10;;;;;;5034264;28;20029;-79
2021/01/14 12:18:36;;;;;;;4.35;1.80;;;5.20;91.10;;;;;;5033634;28;20418;-79
2021/01/14 12:21:02;;;;;;;4.50;1.73;;;5.20;91.10;;;;;;5031108;28;20036;-80
2021/01/14 12:23:28;;;;;;;2.75;1.70;;;5.30;91.00;;;;;;5033750;28;20455;-79
2021/01/14 12:25:53;;;;;;;3.45;1.88;;;5.30;90.90;;;;;;5015606;28;20446;-80
2021/01/14 12:28:19;;;;;;;5.97;2.40;;;5.40;91.10;;;;;;5034073;28;20029;-80
2021/01/14 12:30:45;;;;;;;2.10;1.20;;;5.50;90.80;;;;;;5033603;28;20060;-80
2021/01/14 12:33:10;;;;;;;2.42;1.42;;;5.60;90.60;;;;;;5033484;28;20148;-80
2021/01/14 12:35:37;;;;;;;5.07;2.47;;;5.70;90.50;;;;;;5033687;28;20100;-80
2021/01/14 12:38:02;;;;;;;5.85;2.30;;;5.80;90.40;;;;;;5031622;28;20017;-80
2021/01/14 12:40:29;;;;;;;3.60;1.85;;;5.90;90.20;;;;;;5033319;28;20029;-80
2021/01/14 12:42:55;;;;;;;3.58;1.60;;;6.00;90.20;;;;;;5015214;28;20029;-80
2021/01/14 12:45:20;;;;;;;4.80;1.52;;;6.00;90.20;;;;;;5033338;28;20022;-80
2021/01/14 12:47:46;;;;;;;4.65;1.77;;;6.00;90.20;;;;;;5033265;28;20021;-81
2021/01/14 12:50:12;;;;;;;4.65;1.35;;;5.90;90.10;;;;;;5033547;28;20410;-81
2021/01/14 12:52:38;;;;;;;6.78;1.50;;;5.80;90.10;;;;;;5033408;28;20017;-78
2021/01/14 12:55:04;;;;;;;1.92;1.25;;;5.80;90.10;;;;;;5032707;28;20021;-79
2021/01/14 12:57:30;;;;;;;3.00;1.90;;;5.70;90.10;;;;;;5033143;28;20021;-79
2021/01/14 12:59:55;;;;;;;2.22;1.30;;;5.60;90.10;;;;;;5032108;28;20021;-79
2021/01/14 13:02:21;;;;;;;2.60;1.63;;;5.60;90.20;;;;;;5033382;28;20072;-79
2021/01/14 13:04:46;;;;;;;5.30;1.70;;;5.50;90.20;;;;;;5033071;28;20049;-80
2021/01/14 13:07:12;;;;;;;6.63;1.80;;;5.50;90.20;;;;;;5014845;28;20017;-80
2021/01/14 13:09:37;;;;;;;2.63;1.58;;;5.50;90.10;;;;;;5033243;28;20029;-80
2021/01/14 13:12:03;;;;;;;3.15;1.58;;;5.40;90.10;;;;;;5032454;28;20104;-80